sensor_id;sensor_type;location;lat;lon;timestamp;P1;durP1;ratioP1;P2;durP2;ratioP2
10719;SDS011;5411;58.386;15.560;2023-05-28T00:01:37;7.50;;;3.00;;
10719;SDS011;5411;58.386;15.560;2023-05-28T00:04:07;7.53;;;3.03;;
10719;SDS011;5411;58.386;15.560;2023-05-28T00:06:36;4.93;;;2.57;;
10719;SDS011;5411;58.386;15.560;2023-05-28T00:09:11;4.30;;;2.30;;
10719;SDS011;5411;58.386;15.560;2023-05-28T00:11:41;7.03;;;3.10;;
10719;SDS011;5411;58.386;15.560;2023-05-28T00:14:09;6.63;;;3.40;;
10719;SDS011;5411;58.386;15.560;2023-05-28T00:16:37;5.07;;;2.67;;
10719;SDS011;5411;58.386;15.560;2023-05-28T00:19:09;3.90;;;3.20;;
10719;SDS011;5411;58.386;15.560;2023-05-28T00:21:37;6.50;;;3.13;;
10719;SDS011;5411;58.386;15.560;2023-05-28T00:24:06;7.43;;;3.27;;
10719;SDS011;5411;58.386;15.560;2023-05-28T00:26:35;6.73;;;3.07;;
10719;SDS011;5411;58.386;15.560;2023-05-28T00:29:04;6.20;;;2.93;;
10719;SDS011;5411;58.386;15.560;2023-05-28T00:31:32;8.67;;;3.67;;
10719;SDS011;5411;58.386;15.560;2023-05-28T00:34:01;6.83;;;2.97;;
10719;SDS011;5411;58.386;15.560;2023-05-28T00:36:32;7.17;;;3.23;;
10719;SDS011;5411;58.386;15.560;2023-05-28T00:39:01;6.10;;;3.00;;
10719;SDS011;5411;58.386;15.560;2023-05-28T00:41:31;7.17;;;3.00;;
10719;SDS011;5411;58.386;15.560;2023-05-28T00:44:01;6.10;;;2.77;;
10719;SDS011;5411;58.386;15.560;2023-05-28T00:46:30;7.43;;;3.63;;
10719;SDS011;5411;58.386;15.560;2023-05-28T00:48:59;9.13;;;3.27;;
10719;SDS011;5411;58.386;15.560;2023-05-28T00:51:27;7.97;;;3.43;;
10719;SDS011;5411;58.386;15.560;2023-05-28T00:53:59;8.37;;;3.30;;
10719;SDS011;5411;58.386;15.560;2023-05-28T00:56:28;5.10;;;3.40;;
10719;SDS011;5411;58.386;15.560;2023-05-28T00:58:58;6.20;;;3.40;;
10719;SDS011;5411;58.386;15.560;2023-05-28T01:01:27;7.73;;;3.20;;
10719;SDS011;5411;58.386;15.560;2023-05-28T01:03:57;3.97;;;3.03;;
10719;SDS011;5411;58.386;15.560;2023-05-28T01:06:27;9.07;;;3.33;;
10719;SDS011;5411;58.386;15.560;2023-05-28T01:08:56;6.70;;;2.63;;
10719;SDS011;5411;58.386;15.560;2023-05-28T01:11:26;7.57;;;3.40;;
10719;SDS011;5411;58.386;15.560;2023-05-28T01:13:55;6.83;;;2.97;;
10719;SDS011;5411;58.386;15.560;2023-05-28T01:16:24;6.37;;;3.10;;
10719;SDS011;5411;58.386;15.560;2023-05-28T01:18:55;5.00;;;3.23;;
10719;SDS011;5411;58.386;15.560;2023-05-28T01:21:24;9.33;;;3.13;;
10719;SDS011;5411;58.386;15.560;2023-05-28T01:23:58;10.03;;;3.67;;
10719;SDS011;5411;58.386;15.560;2023-05-28T01:26:28;6.43;;;3.23;;
10719;SDS011;5411;58.386;15.560;2023-05-28T01:28:57;8.67;;;3.10;;
10719;SDS011;5411;58.386;15.560;2023-05-28T01:31:26;9.03;;;3.40;;
10719;SDS011;5411;58.386;15.560;2023-05-28T01:33:54;7.23;;;3.10;;
10719;SDS011;5411;58.386;15.560;2023-05-28T01:36:32;8.40;;;3.30;;
10719;SDS011;5411;58.386;15.560;2023-05-28T01:39:06;5.97;;;3.10;;
10719;SDS011;5411;58.386;15.560;2023-05-28T01:41:35;6.40;;;3.30;;
10719;SDS011;5411;58.386;15.560;2023-05-28T01:44:03;7.50;;;3.53;;
10719;SDS011;5411;58.386;15.560;2023-05-28T01:46:33;6.67;;;3.77;;
10719;SDS011;5411;58.386;15.560;2023-05-28T01:49:02;8.23;;;3.23;;
10719;SDS011;5411;58.386;15.560;2023-05-28T01:51:31;6.40;;;3.27;;
10719;SDS011;5411;58.386;15.560;2023-05-28T01:54:00;4.60;;;2.90;;
10719;SDS011;5411;58.386;15.560;2023-05-28T01:56:30;6.13;;;3.03;;
10719;SDS011;5411;58.386;15.560;2023-05-28T01:58:59;8.10;;;3.33;;
10719;SDS011;5411;58.386;15.560;2023-05-28T02:01:27;7.87;;;3.60;;
10719;SDS011;5411;58.386;15.560;2023-05-28T02:03:57;7.87;;;3.20;;
10719;SDS011;5411;58.386;15.560;2023-05-28T02:06:26;8.67;;;4.23;;
10719;SDS011;5411;58.386;15.560;2023-05-28T02:08:56;6.00;;;3.17;;
10719;SDS011;5411;58.386;15.560;2023-05-28T02:11:25;8.73;;;3.73;;
10719;SDS011;5411;58.386;15.560;2023-05-28T02:13:55;5.90;;;3.10;;
10719;SDS011;5411;58.386;15.560;2023-05-28T02:16:24;5.73;;;3.47;;
10719;SDS011;5411;58.386;15.560;2023-05-28T02:18:54;6.90;;;3.00;;
10719;SDS011;5411;58.386;15.560;2023-05-28T02:21:22;8.23;;;4.47;;
10719;SDS011;5411;58.386;15.560;2023-05-28T02:23:51;7.17;;;3.60;;
10719;SDS011;5411;58.386;15.560;2023-05-28T02:26:19;8.07;;;3.40;;
10719;SDS011;5411;58.386;15.560;2023-05-28T02:28:49;7.43;;;3.10;;
10719;SDS011;5411;58.386;15.560;2023-05-28T02:31:19;5.00;;;2.90;;
10719;SDS011;5411;58.386;15.560;2023-05-28T02:33:47;11.40;;;3.20;;
10719;SDS011;5411;58.386;15.560;2023-05-28T02:36:17;7.13;;;3.13;;
10719;SDS011;5411;58.386;15.560;2023-05-28T02:38:47;5.37;;;2.80;;
10719;SDS011;5411;58.386;15.560;2023-05-28T02:41:16;10.73;;;3.33;;
10719;SDS011;5411;58.386;15.560;2023-05-28T02:43:44;9.57;;;2.67;;
10719;SDS011;5411;58.386;15.560;2023-05-28T02:46:13;7.47;;;2.90;;
10719;SDS011;5411;58.386;15.560;2023-05-28T02:48:43;6.33;;;2.80;;
10719;SDS011;5411;58.386;15.560;2023-05-28T02:51:12;6.57;;;3.43;;
10719;SDS011;5411;58.386;15.560;2023-05-28T02:53:40;3.93;;;2.50;;
10719;SDS011;5411;58.386;15.560;2023-05-28T02:56:08;6.50;;;3.17;;
10719;SDS011;5411;58.386;15.560;2023-05-28T02:58:37;6.60;;;3.17;;
10719;SDS011;5411;58.386;15.560;2023-05-28T03:01:05;6.23;;;2.53;;
10719;SDS011;5411;58.386;15.560;2023-05-28T03:03:34;9.67;;;3.27;;
10719;SDS011;5411;58.386;15.560;2023-05-28T03:06:04;6.47;;;3.17;;
10719;SDS011;5411;58.386;15.560;2023-05-28T03:08:33;8.37;;;3.40;;
10719;SDS011;5411;58.386;15.560;2023-05-28T03:11:01;6.20;;;2.93;;
10719;SDS011;5411;58.386;15.560;2023-05-28T03:13:30;4.77;;;2.73;;
10719;SDS011;5411;58.386;15.560;2023-05-28T03:15:58;10.27;;;3.57;;
10719;SDS011;5411;58.386;15.560;2023-05-28T03:18:26;7.53;;;3.50;;
10719;SDS011;5411;58.386;15.560;2023-05-28T03:20:54;7.80;;;3.17;;
10719;SDS011;5411;58.386;15.560;2023-05-28T03:23:26;8.83;;;4.03;;
10719;SDS011;5411;58.386;15.560;2023-05-28T03:25:54;8.17;;;3.33;;
10719;SDS011;5411;58.386;15.560;2023-05-28T03:28:23;7.23;;;3.50;;
10719;SDS011;5411;58.386;15.560;2023-05-28T03:30:53;6.33;;;3.20;;
10719;SDS011;5411;58.386;15.560;2023-05-28T03:33:24;7.13;;;3.07;;
10719;SDS011;5411;58.386;15.560;2023-05-28T03:35:52;4.13;;;2.77;;
10719;SDS011;5411;58.386;15.560;2023-05-28T03:38:21;5.00;;;3.97;;
10719;SDS011;5411;58.386;15.560;2023-05-28T03:40:54;8.90;;;3.37;;
10719;SDS011;5411;58.386;15.560;2023-05-28T03:43:22;6.50;;;3.30;;
10719;SDS011;5411;58.386;15.560;2023-05-28T03:45:50;6.63;;;3.27;;
10719;SDS011;5411;58.386;15.560;2023-05-28T03:48:19;7.80;;;3.20;;
10719;SDS011;5411;58.386;15.560;2023-05-28T03:50:47;8.60;;;3.20;;
10719;SDS011;5411;58.386;15.560;2023-05-28T03:53:16;8.80;;;3.47;;
10719;SDS011;5411;58.386;15.560;2023-05-28T03:55:46;7.47;;;3.23;;
10719;SDS011;5411;58.386;15.560;2023-05-28T03:58:14;9.03;;;3.77;;
10719;SDS011;5411;58.386;15.560;2023-05-28T04:00:42;9.67;;;4.27;;
10719;SDS011;5411;58.386;15.560;2023-05-28T04:03:11;8.70;;;3.50;;
10719;SDS011;5411;58.386;15.560;2023-05-28T04:05:39;7.23;;;3.37;;
10719;SDS011;5411;58.386;15.560;2023-05-28T04:08:09;5.90;;;3.50;;
10719;SDS011;5411;58.386;15.560;2023-05-28T04:10:37;5.17;;;3.57;;
10719;SDS011;5411;58.386;15.560;2023-05-28T04:13:07;7.37;;;3.50;;
10719;SDS011;5411;58.386;15.560;2023-05-28T04:15:36;6.87;;;3.20;;
10719;SDS011;5411;58.386;15.560;2023-05-28T04:18:04;6.53;;;3.67;;
10719;SDS011;5411;58.386;15.560;2023-05-28T04:20:33;6.27;;;3.63;;
10719;SDS011;5411;58.386;15.560;2023-05-28T04:23:02;6.73;;;3.40;;
10719;SDS011;5411;58.386;15.560;2023-05-28T04:25:30;7.17;;;3.90;;
10719;SDS011;5411;58.386;15.560;2023-05-28T04:27:59;8.07;;;3.87;;
10719;SDS011;5411;58.386;15.560;2023-05-28T04:30:29;7.57;;;4.30;;
10719;SDS011;5411;58.386;15.560;2023-05-28T04:32:57;7.53;;;3.63;;
10719;SDS011;5411;58.386;15.560;2023-05-28T04:35:27;6.97;;;3.90;;
10719;SDS011;5411;58.386;15.560;2023-05-28T04:37:56;9.77;;;3.70;;
10719;SDS011;5411;58.386;15.560;2023-05-28T04:40:26;8.20;;;4.73;;
10719;SDS011;5411;58.386;15.560;2023-05-28T04:42:54;9.03;;;4.33;;
10719;SDS011;5411;58.386;15.560;2023-05-28T04:45:23;6.90;;;4.17;;
10719;SDS011;5411;58.386;15.560;2023-05-28T04:47:54;6.97;;;3.90;;
10719;SDS011;5411;58.386;15.560;2023-05-28T04:50:24;7.60;;;4.57;;
10719;SDS011;5411;58.386;15.560;2023-05-28T04:52:52;8.17;;;4.00;;
10719;SDS011;5411;58.386;15.560;2023-05-28T04:55:20;6.23;;;3.97;;
10719;SDS011;5411;58.386;15.560;2023-05-28T04:57:48;8.03;;;4.07;;
10719;SDS011;5411;58.386;15.560;2023-05-28T05:00:17;8.83;;;4.77;;
10719;SDS011;5411;58.386;15.560;2023-05-28T05:02:50;12.50;;;3.90;;
10719;SDS011;5411;58.386;15.560;2023-05-28T05:05:21;8.07;;;3.90;;
10719;SDS011;5411;58.386;15.560;2023-05-28T05:07:49;6.53;;;3.50;;
10719;SDS011;5411;58.386;15.560;2023-05-28T05:10:18;6.80;;;3.83;;
10719;SDS011;5411;58.386;15.560;2023-05-28T05:12:47;7.63;;;3.70;;
10719;SDS011;5411;58.386;15.560;2023-05-28T05:15:15;8.13;;;4.30;;
10719;SDS011;5411;58.386;15.560;2023-05-28T05:17:43;8.87;;;4.17;;
10719;SDS011;5411;58.386;15.560;2023-05-28T05:20:12;10.00;;;4.07;;
10719;SDS011;5411;58.386;15.560;2023-05-28T05:22:42;8.77;;;4.20;;
10719;SDS011;5411;58.386;15.560;2023-05-28T05:25:10;8.23;;;4.70;;
10719;SDS011;5411;58.386;15.560;2023-05-28T05:27:38;7.77;;;4.07;;
10719;SDS011;5411;58.386;15.560;2023-05-28T05:30:07;6.97;;;3.80;;
10719;SDS011;5411;58.386;15.560;2023-05-28T05:32:37;6.63;;;3.80;;
10719;SDS011;5411;58.386;15.560;2023-05-28T05:35:05;6.37;;;3.67;;
10719;SDS011;5411;58.386;15.560;2023-05-28T05:37:34;7.57;;;3.50;;
10719;SDS011;5411;58.386;15.560;2023-05-28T05:40:06;7.27;;;3.60;;
10719;SDS011;5411;58.386;15.560;2023-05-28T05:42:36;6.07;;;3.50;;
10719;SDS011;5411;58.386;15.560;2023-05-28T05:45:08;7.53;;;3.67;;
10719;SDS011;5411;58.386;15.560;2023-05-28T05:47:39;8.47;;;4.20;;
10719;SDS011;5411;58.386;15.560;2023-05-28T05:50:10;5.83;;;3.83;;
10719;SDS011;5411;58.386;15.560;2023-05-28T05:52:39;8.27;;;3.70;;
10719;SDS011;5411;58.386;15.560;2023-05-28T05:55:10;10.23;;;3.93;;
10719;SDS011;5411;58.386;15.560;2023-05-28T05:57:38;8.20;;;3.50;;
10719;SDS011;5411;58.386;15.560;2023-05-28T06:00:14;5.00;;;3.27;;
10719;SDS011;5411;58.386;15.560;2023-05-28T06:02:46;8.33;;;3.73;;
10719;SDS011;5411;58.386;15.560;2023-05-28T06:05:14;5.90;;;3.30;;
10719;SDS011;5411;58.386;15.560;2023-05-28T06:07:42;10.47;;;4.13;;
10719;SDS011;5411;58.386;15.560;2023-05-28T06:10:13;6.30;;;3.33;;
10719;SDS011;5411;58.386;15.560;2023-05-28T06:12:43;6.17;;;3.20;;
10719;SDS011;5411;58.386;15.560;2023-05-28T06:15:12;6.63;;;3.67;;
10719;SDS011;5411;58.386;15.560;2023-05-28T06:17:47;8.47;;;3.00;;
10719;SDS011;5411;58.386;15.560;2023-05-28T06:20:16;7.63;;;3.40;;
10719;SDS011;5411;58.386;15.560;2023-05-28T06:22:46;7.07;;;3.30;;
10719;SDS011;5411;58.386;15.560;2023-05-28T06:25:16;6.43;;;3.13;;
10719;SDS011;5411;58.386;15.560;2023-05-28T06:27:45;6.60;;;3.00;;
10719;SDS011;5411;58.386;15.560;2023-05-28T06:30:13;6.13;;;2.93;;
10719;SDS011;5411;58.386;15.560;2023-05-28T06:32:43;4.43;;;2.83;;
10719;SDS011;5411;58.386;15.560;2023-05-28T06:35:11;5.50;;;3.37;;
10719;SDS011;5411;58.386;15.560;2023-05-28T06:37:40;4.80;;;3.10;;
10719;SDS011;5411;58.386;15.560;2023-05-28T06:40:09;6.60;;;2.90;;
10719;SDS011;5411;58.386;15.560;2023-05-28T06:42:40;5.20;;;2.97;;
10719;SDS011;5411;58.386;15.560;2023-05-28T06:45:08;5.97;;;2.53;;
10719;SDS011;5411;58.386;15.560;2023-05-28T06:47:37;4.60;;;3.00;;
10719;SDS011;5411;58.386;15.560;2023-05-28T06:50:06;7.47;;;2.90;;
10719;SDS011;5411;58.386;15.560;2023-05-28T06:52:34;5.67;;;2.90;;
10719;SDS011;5411;58.386;15.560;2023-05-28T06:55:03;5.27;;;2.70;;
10719;SDS011;5411;58.386;15.560;2023-05-28T06:57:32;5.63;;;2.77;;
10719;SDS011;5411;58.386;15.560;2023-05-28T07:00:02;6.43;;;3.30;;
10719;SDS011;5411;58.386;15.560;2023-05-28T07:02:35;4.83;;;3.03;;
10719;SDS011;5411;58.386;15.560;2023-05-28T07:05:03;4.30;;;2.10;;
10719;SDS011;5411;58.386;15.560;2023-05-28T07:07:32;7.37;;;2.80;;
10719;SDS011;5411;58.386;15.560;2023-05-28T07:10:00;3.93;;;2.50;;
10719;SDS011;5411;58.386;15.560;2023-05-28T07:12:29;2.63;;;2.30;;
10719;SDS011;5411;58.386;15.560;2023-05-28T07:14:57;3.97;;;2.47;;
10719;SDS011;5411;58.386;15.560;2023-05-28T07:17:27;5.87;;;2.73;;
10719;SDS011;5411;58.386;15.560;2023-05-28T07:19:55;9.00;;;2.40;;
10719;SDS011;5411;58.386;15.560;2023-05-28T07:22:23;2.00;;;1.70;;
10719;SDS011;5411;58.386;15.560;2023-05-28T07:24:53;5.93;;;2.20;;
10719;SDS011;5411;58.386;15.560;2023-05-28T07:27:21;5.13;;;2.10;;
10719;SDS011;5411;58.386;15.560;2023-05-28T07:29:50;3.73;;;2.20;;
10719;SDS011;5411;58.386;15.560;2023-05-28T07:32:18;4.20;;;2.53;;
10719;SDS011;5411;58.386;15.560;2023-05-28T07:34:49;6.17;;;2.27;;
10719;SDS011;5411;58.386;15.560;2023-05-28T07:37:18;2.90;;;2.07;;
10719;SDS011;5411;58.386;15.560;2023-05-28T07:39:47;3.90;;;2.00;;
10719;SDS011;5411;58.386;15.560;2023-05-28T07:42:15;4.80;;;1.97;;
10719;SDS011;5411;58.386;15.560;2023-05-28T07:44:44;4.70;;;1.93;;
10719;SDS011;5411;58.386;15.560;2023-05-28T07:47:12;5.10;;;2.30;;
10719;SDS011;5411;58.386;15.560;2023-05-28T07:49:42;3.53;;;1.80;;
10719;SDS011;5411;58.386;15.560;2023-05-28T07:52:11;2.47;;;1.77;;
10719;SDS011;5411;58.386;15.560;2023-05-28T07:54:40;2.67;;;1.90;;
10719;SDS011;5411;58.386;15.560;2023-05-28T07:57:09;3.87;;;2.07;;
10719;SDS011;5411;58.386;15.560;2023-05-28T07:59:37;6.27;;;2.17;;
10719;SDS011;5411;58.386;15.560;2023-05-28T08:02:05;4.40;;;1.70;;
10719;SDS011;5411;58.386;15.560;2023-05-28T08:04:34;3.87;;;1.90;;
10719;SDS011;5411;58.386;15.560;2023-05-28T08:07:03;2.80;;;1.90;;
10719;SDS011;5411;58.386;15.560;2023-05-28T08:09:32;6.30;;;1.90;;
10719;SDS011;5411;58.386;15.560;2023-05-28T08:12:01;2.77;;;1.93;;
10719;SDS011;5411;58.386;15.560;2023-05-28T08:14:29;3.60;;;1.90;;
10719;SDS011;5411;58.386;15.560;2023-05-28T08:16:57;4.30;;;1.93;;
10719;SDS011;5411;58.386;15.560;2023-05-28T08:19:25;4.80;;;2.60;;
10719;SDS011;5411;58.386;15.560;2023-05-28T08:21:54;8.27;;;2.03;;
10719;SDS011;5411;58.386;15.560;2023-05-28T08:24:23;4.40;;;2.27;;
10719;SDS011;5411;58.386;15.560;2023-05-28T08:26:53;3.13;;;1.70;;
10719;SDS011;5411;58.386;15.560;2023-05-28T08:29:21;4.00;;;2.17;;
10719;SDS011;5411;58.386;15.560;2023-05-28T08:31:50;6.50;;;1.57;;
10719;SDS011;5411;58.386;15.560;2023-05-28T08:34:20;3.17;;;2.37;;
10719;SDS011;5411;58.386;15.560;2023-05-28T08:36:50;2.73;;;1.93;;
10719;SDS011;5411;58.386;15.560;2023-05-28T08:39:19;2.83;;;1.90;;
10719;SDS011;5411;58.386;15.560;2023-05-28T08:41:50;4.73;;;2.30;;
10719;SDS011;5411;58.386;15.560;2023-05-28T08:44:20;2.87;;;1.97;;
10719;SDS011;5411;58.386;15.560;2023-05-28T08:46:48;6.20;;;1.90;;
10719;SDS011;5411;58.386;15.560;2023-05-28T08:49:19;6.03;;;2.57;;
10719;SDS011;5411;58.386;15.560;2023-05-28T08:51:55;6.07;;;2.10;;
10719;SDS011;5411;58.386;15.560;2023-05-28T08:54:27;3.83;;;2.30;;
10719;SDS011;5411;58.386;15.560;2023-05-28T08:56:57;6.77;;;2.07;;
10719;SDS011;5411;58.386;15.560;2023-05-28T08:59:28;4.23;;;2.23;;
10719;SDS011;5411;58.386;15.560;2023-05-28T09:01:57;2.73;;;1.90;;
10719;SDS011;5411;58.386;15.560;2023-05-28T09:04:26;3.27;;;2.20;;
10719;SDS011;5411;58.386;15.560;2023-05-28T09:06:55;3.20;;;1.90;;
10719;SDS011;5411;58.386;15.560;2023-05-28T09:09:25;4.23;;;2.30;;
10719;SDS011;5411;58.386;15.560;2023-05-28T09:11:57;2.90;;;1.93;;
10719;SDS011;5411;58.386;15.560;2023-05-28T09:14:32;3.23;;;2.40;;
10719;SDS011;5411;58.386;15.560;2023-05-28T09:17:05;5.03;;;2.30;;
10719;SDS011;5411;58.386;15.560;2023-05-28T09:19:35;5.13;;;2.33;;
10719;SDS011;5411;58.386;15.560;2023-05-28T09:22:03;4.07;;;2.30;;
10719;SDS011;5411;58.386;15.560;2023-05-28T09:24:32;4.90;;;2.27;;
10719;SDS011;5411;58.386;15.560;2023-05-28T09:27:01;8.17;;;1.93;;
10719;SDS011;5411;58.386;15.560;2023-05-28T09:29:32;5.60;;;2.40;;
10719;SDS011;5411;58.386;15.560;2023-05-28T09:32:01;3.70;;;2.00;;
10719;SDS011;5411;58.386;15.560;2023-05-28T09:34:31;3.13;;;2.30;;
10719;SDS011;5411;58.386;15.560;2023-05-28T09:37:00;4.67;;;2.60;;
10719;SDS011;5411;58.386;15.560;2023-05-28T09:39:29;2.20;;;1.93;;
10719;SDS011;5411;58.386;15.560;2023-05-28T09:41:58;5.50;;;2.40;;
10719;SDS011;5411;58.386;15.560;2023-05-28T09:44:29;4.63;;;2.73;;
10719;SDS011;5411;58.386;15.560;2023-05-28T09:47:01;4.17;;;2.03;;
10719;SDS011;5411;58.386;15.560;2023-05-28T09:49:29;4.30;;;2.33;;
10719;SDS011;5411;58.386;15.560;2023-05-28T09:51:58;3.00;;;2.17;;
10719;SDS011;5411;58.386;15.560;2023-05-28T09:54:29;4.97;;;2.27;;
10719;SDS011;5411;58.386;15.560;2023-05-28T09:57:01;4.40;;;2.40;;
10719;SDS011;5411;58.386;15.560;2023-05-28T09:59:30;7.10;;;2.60;;
10719;SDS011;5411;58.386;15.560;2023-05-28T10:02:03;6.23;;;2.53;;
10719;SDS011;5411;58.386;15.560;2023-05-28T10:04:40;5.73;;;2.50;;
10719;SDS011;5411;58.386;15.560;2023-05-28T10:07:23;6.17;;;2.43;;
10719;SDS011;5411;58.386;15.560;2023-05-28T10:09:53;3.20;;;2.20;;
10719;SDS011;5411;58.386;15.560;2023-05-28T10:12:24;3.67;;;2.13;;
10719;SDS011;5411;58.386;15.560;2023-05-28T10:14:55;4.63;;;2.00;;
10719;SDS011;5411;58.386;15.560;2023-05-28T10:17:25;6.73;;;2.70;;
10719;SDS011;5411;58.386;15.560;2023-05-28T10:19:54;4.87;;;2.17;;
10719;SDS011;5411;58.386;15.560;2023-05-28T10:22:22;6.70;;;3.00;;
10719;SDS011;5411;58.386;15.560;2023-05-28T10:24:51;4.40;;;2.30;;
10719;SDS011;5411;58.386;15.560;2023-05-28T10:27:20;6.43;;;2.47;;
10719;SDS011;5411;58.386;15.560;2023-05-28T10:29:56;5.87;;;2.23;;
10719;SDS011;5411;58.386;15.560;2023-05-28T10:32:26;6.67;;;2.90;;
10719;SDS011;5411;58.386;15.560;2023-05-28T10:35:00;9.20;;;2.50;;
10719;SDS011;5411;58.386;15.560;2023-05-28T10:37:30;3.33;;;2.40;;
10719;SDS011;5411;58.386;15.560;2023-05-28T10:39:59;5.00;;;2.33;;
10719;SDS011;5411;58.386;15.560;2023-05-28T10:42:27;4.70;;;2.60;;
10719;SDS011;5411;58.386;15.560;2023-05-28T10:45:05;3.90;;;2.33;;
10719;SDS011;5411;58.386;15.560;2023-05-28T10:47:37;4.93;;;2.43;;
10719;SDS011;5411;58.386;15.560;2023-05-28T10:50:10;4.63;;;2.37;;
10719;SDS011;5411;58.386;15.560;2023-05-28T10:55:52;4.30;;;2.47;;
10719;SDS011;5411;58.386;15.560;2023-05-28T10:58:22;5.23;;;2.40;;
10719;SDS011;5411;58.386;15.560;2023-05-28T11:00:52;4.27;;;2.40;;
10719;SDS011;5411;58.386;15.560;2023-05-28T11:06:24;2.20;;;2.00;;
10719;SDS011;5411;58.386;15.560;2023-05-28T11:08:53;4.10;;;2.20;;
10719;SDS011;5411;58.386;15.560;2023-05-28T11:11:24;4.90;;;2.00;;
10719;SDS011;5411;58.386;15.560;2023-05-28T11:13:54;5.83;;;2.60;;
10719;SDS011;5411;58.386;15.560;2023-05-28T11:16:23;5.40;;;2.53;;
10719;SDS011;5411;58.386;15.560;2023-05-28T11:19:02;4.93;;;2.27;;
10719;SDS011;5411;58.386;15.560;2023-05-28T11:21:31;6.43;;;2.73;;
10719;SDS011;5411;58.386;15.560;2023-05-28T11:24:00;3.60;;;2.30;;
10719;SDS011;5411;58.386;15.560;2023-05-28T11:26:34;6.27;;;1.93;;
10719;SDS011;5411;58.386;15.560;2023-05-28T11:29:02;4.03;;;2.00;;
10719;SDS011;5411;58.386;15.560;2023-05-28T11:31:37;4.63;;;2.13;;
10719;SDS011;5411;58.386;15.560;2023-05-28T11:34:10;3.17;;;2.20;;
10719;SDS011;5411;58.386;15.560;2023-05-28T11:36:39;4.83;;;1.77;;
10719;SDS011;5411;58.386;15.560;2023-05-28T11:39:08;5.20;;;2.50;;
10719;SDS011;5411;58.386;15.560;2023-05-28T11:41:45;3.70;;;2.00;;
10719;SDS011;5411;58.386;15.560;2023-05-28T11:44:20;3.83;;;2.50;;
10719;SDS011;5411;58.386;15.560;2023-05-28T11:46:49;4.20;;;1.77;;
10719;SDS011;5411;58.386;15.560;2023-05-28T11:49:20;4.00;;;2.00;;
10719;SDS011;5411;58.386;15.560;2023-05-28T11:51:49;4.07;;;2.23;;
10719;SDS011;5411;58.386;15.560;2023-05-28T11:54:23;3.90;;;2.53;;
10719;SDS011;5411;58.386;15.560;2023-05-28T11:56:52;4.07;;;1.97;;
10719;SDS011;5411;58.386;15.560;2023-05-28T11:59:21;4.97;;;2.20;;
10719;SDS011;5411;58.386;15.560;2023-05-28T12:01:52;5.67;;;1.90;;
10719;SDS011;5411;58.386;15.560;2023-05-28T12:04:23;3.10;;;2.00;;
10719;SDS011;5411;58.386;15.560;2023-05-28T12:06:51;4.67;;;2.07;;
10719;SDS011;5411;58.386;15.560;2023-05-28T12:09:21;3.17;;;1.80;;
10719;SDS011;5411;58.386;15.560;2023-05-28T12:12:02;4.27;;;1.80;;
10719;SDS011;5411;58.386;15.560;2023-05-28T12:14:32;5.30;;;2.47;;
10719;SDS011;5411;58.386;15.560;2023-05-28T12:17:04;6.07;;;1.90;;
10719;SDS011;5411;58.386;15.560;2023-05-28T12:19:36;4.30;;;1.97;;
10719;SDS011;5411;58.386;15.560;2023-05-28T12:22:13;6.03;;;2.27;;
10719;SDS011;5411;58.386;15.560;2023-05-28T12:24:51;2.97;;;1.80;;
10719;SDS011;5411;58.386;15.560;2023-05-28T12:27:20;2.80;;;1.80;;
10719;SDS011;5411;58.386;15.560;2023-05-28T12:29:49;3.03;;;1.97;;
10719;SDS011;5411;58.386;15.560;2023-05-28T12:32:17;3.03;;;2.10;;
10719;SDS011;5411;58.386;15.560;2023-05-28T12:34:47;5.10;;;2.30;;
10719;SDS011;5411;58.386;15.560;2023-05-28T12:37:19;3.67;;;1.80;;
10719;SDS011;5411;58.386;15.560;2023-05-28T12:39:48;2.93;;;1.73;;
10719;SDS011;5411;58.386;15.560;2023-05-28T12:42:17;4.30;;;2.27;;
10719;SDS011;5411;58.386;15.560;2023-05-28T12:44:45;5.33;;;1.80;;
10719;SDS011;5411;58.386;15.560;2023-05-28T12:47:14;6.13;;;2.03;;
10719;SDS011;5411;58.386;15.560;2023-05-28T12:49:42;3.07;;;2.13;;
10719;SDS011;5411;58.386;15.560;2023-05-28T12:52:12;3.07;;;1.70;;
10719;SDS011;5411;58.386;15.560;2023-05-28T12:54:40;2.73;;;1.60;;
10719;SDS011;5411;58.386;15.560;2023-05-28T12:57:12;3.33;;;1.90;;
10719;SDS011;5411;58.386;15.560;2023-05-28T12:59:50;4.97;;;2.00;;
10719;SDS011;5411;58.386;15.560;2023-05-28T13:02:18;2.53;;;1.80;;
10719;SDS011;5411;58.386;15.560;2023-05-28T13:04:46;4.23;;;1.83;;
10719;SDS011;5411;58.386;15.560;2023-05-28T13:07:16;5.30;;;1.80;;
10719;SDS011;5411;58.386;15.560;2023-05-28T13:09:45;5.63;;;2.07;;
10719;SDS011;5411;58.386;15.560;2023-05-28T13:12:14;6.43;;;2.30;;
10719;SDS011;5411;58.386;15.560;2023-05-28T13:14:44;2.93;;;1.60;;
10719;SDS011;5411;58.386;15.560;2023-05-28T13:17:12;4.67;;;1.93;;
10719;SDS011;5411;58.386;15.560;2023-05-28T13:19:40;4.30;;;1.77;;
10719;SDS011;5411;58.386;15.560;2023-05-28T13:22:09;4.73;;;1.90;;
10719;SDS011;5411;58.386;15.560;2023-05-28T13:24:41;4.17;;;1.57;;
10719;SDS011;5411;58.386;15.560;2023-05-28T13:27:15;5.40;;;2.10;;
10719;SDS011;5411;58.386;15.560;2023-05-28T13:29:48;3.87;;;1.70;;
10719;SDS011;5411;58.386;15.560;2023-05-28T13:32:16;3.00;;;1.73;;
10719;SDS011;5411;58.386;15.560;2023-05-28T13:34:45;3.90;;;1.80;;
10719;SDS011;5411;58.386;15.560;2023-05-28T13:37:14;3.10;;;1.67;;
10719;SDS011;5411;58.386;15.560;2023-05-28T13:39:44;4.27;;;2.13;;
10719;SDS011;5411;58.386;15.560;2023-05-28T13:42:13;5.17;;;2.20;;
10719;SDS011;5411;58.386;15.560;2023-05-28T13:44:46;4.50;;;1.57;;
10719;SDS011;5411;58.386;15.560;2023-05-28T13:47:16;2.83;;;1.70;;
10719;SDS011;5411;58.386;15.560;2023-05-28T13:49:45;4.73;;;2.20;;
10719;SDS011;5411;58.386;15.560;2023-05-28T13:52:14;3.67;;;1.73;;
10719;SDS011;5411;58.386;15.560;2023-05-28T13:54:44;2.37;;;1.40;;
10719;SDS011;5411;58.386;15.560;2023-05-28T13:57:12;2.07;;;1.37;;
10719;SDS011;5411;58.386;15.560;2023-05-28T13:59:40;2.03;;;1.20;;
10719;SDS011;5411;58.386;15.560;2023-05-28T14:02:08;2.50;;;1.60;;
10719;SDS011;5411;58.386;15.560;2023-05-28T14:04:37;2.00;;;1.40;;
10719;SDS011;5411;58.386;15.560;2023-05-28T14:07:05;3.67;;;1.57;;
10719;SDS011;5411;58.386;15.560;2023-05-28T14:09:35;5.03;;;1.60;;
10719;SDS011;5411;58.386;15.560;2023-05-28T14:12:05;3.97;;;1.40;;
10719;SDS011;5411;58.386;15.560;2023-05-28T14:14:48;4.03;;;1.70;;
10719;SDS011;5411;58.386;15.560;2023-05-28T14:17:16;2.17;;;1.63;;
10719;SDS011;5411;58.386;15.560;2023-05-28T14:19:45;3.10;;;1.53;;
10719;SDS011;5411;58.386;15.560;2023-05-28T14:22:14;2.93;;;1.73;;
10719;SDS011;5411;58.386;15.560;2023-05-28T14:24:42;3.97;;;1.60;;
10719;SDS011;5411;58.386;15.560;2023-05-28T14:27:12;2.43;;;1.50;;
10719;SDS011;5411;58.386;15.560;2023-05-28T14:29:41;5.97;;;1.57;;
10719;SDS011;5411;58.386;15.560;2023-05-28T14:32:09;2.30;;;1.40;;
10719;SDS011;5411;58.386;15.560;2023-05-28T14:34:37;2.90;;;1.50;;
10719;SDS011;5411;58.386;15.560;2023-05-28T14:37:10;1.70;;;1.20;;
10719;SDS011;5411;58.386;15.560;2023-05-28T14:39:38;2.97;;;1.33;;
10719;SDS011;5411;58.386;15.560;2023-05-28T14:42:06;3.33;;;1.50;;
10719;SDS011;5411;58.386;15.560;2023-05-28T14:44:36;2.83;;;1.83;;
10719;SDS011;5411;58.386;15.560;2023-05-28T14:47:04;2.87;;;1.43;;
10719;SDS011;5411;58.386;15.560;2023-05-28T14:49:33;4.50;;;1.63;;
10719;SDS011;5411;58.386;15.560;2023-05-28T14:54:49;2.90;;;1.67;;
10719;SDS011;5411;58.386;15.560;2023-05-28T14:57:17;2.47;;;1.67;;
10719;SDS011;5411;58.386;15.560;2023-05-28T14:59:47;2.80;;;1.57;;
10719;SDS011;5411;58.386;15.560;2023-05-28T15:02:15;2.57;;;1.60;;
10719;SDS011;5411;58.386;15.560;2023-05-28T15:04:45;1.70;;;1.60;;
10719;SDS011;5411;58.386;15.560;2023-05-28T15:07:14;2.30;;;1.60;;
10719;SDS011;5411;58.386;15.560;2023-05-28T15:09:43;2.57;;;1.60;;
10719;SDS011;5411;58.386;15.560;2023-05-28T15:12:11;3.80;;;1.60;;